Grissom ARB Airport Peru US
ICAO: KGUS
IATA: GUS
Category: Large
Scheduled Services: No

Elevation: 812 ft
TransAlt. 18000 ft.

Airport Communications:
APP:121.05
ATIS:108.45
CLNC DEL:120
DEP:121.05
GND:128.425
PMSV METRO:34.46
PTD:37.22
TWR:133.7

KGUS Zoom In..

Runways:

(A) RW 05 length 12501 ft width 200 ft
ILS 109.50 / hdg 46

(B) RW 23 length 12501 ft width 200 ft
ILS 109.50 / hdg 226

Location; KGUS
Day. 23 / Time. 21.56 Zulu
* Altimeter: 29.95
* Temperature: 00° c. 32°f.
* Wind from: 300° Speed 16 kn.
Dewpoint: 00° c.
Visibility: 9 Statute Miles.
Clouds: Scattered 600 ft.
Clouds: Overcast 1100 ft.
Conditions: Slight Drizzle.

KGUS 232156Z 30016KT 9SM -DZ SCT006 OVC011 00/00 A2995 RMK AO2A SLP153 P0000 T10021002 RVRNO $


Wind From 300°
Speed 16 kn.

YouTube Music Video
 
jpsmedia.com for Web Design  worldairports.se 2018   terms of use